sensor_id;sensor_type;location;lat;lon;timestamp;P1;durP1;ratioP1;P2;durP2;ratioP2
19879;SDS011;10102;50.828;4.416;2022-12-05T00:01:31;56.35;;;24.48;;
19879;SDS011;10102;50.828;4.416;2022-12-05T00:04:04;55.45;;;25.10;;
19879;SDS011;10102;50.828;4.416;2022-12-05T00:06:32;59.50;;;25.17;;
19879;SDS011;10102;50.828;4.416;2022-12-05T00:08:59;61.20;;;24.75;;
19879;SDS011;10102;50.828;4.416;2022-12-05T00:11:29;55.83;;;23.95;;
19879;SDS011;10102;50.828;4.416;2022-12-05T00:13:56;60.35;;;24.15;;
19879;SDS011;10102;50.828;4.416;2022-12-05T00:16:24;53.55;;;23.50;;
19879;SDS011;10102;50.828;4.416;2022-12-05T00:18:51;56.83;;;23.20;;
19879;SDS011;10102;50.828;4.416;2022-12-05T00:21:19;51.05;;;22.73;;
19879;SDS011;10102;50.828;4.416;2022-12-05T00:23:49;54.78;;;23.40;;
19879;SDS011;10102;50.828;4.416;2022-12-05T00:26:17;54.60;;;22.08;;
19879;SDS011;10102;50.828;4.416;2022-12-05T00:28:43;52.95;;;21.17;;
19879;SDS011;10102;50.828;4.416;2022-12-05T00:31:10;52.35;;;22.20;;
19879;SDS011;10102;50.828;4.416;2022-12-05T00:33:38;48.53;;;20.85;;
19879;SDS011;10102;50.828;4.416;2022-12-05T00:36:05;50.85;;;22.30;;
19879;SDS011;10102;50.828;4.416;2022-12-05T00:38:33;51.00;;;23.30;;
19879;SDS011;10102;50.828;4.416;2022-12-05T00:41:05;50.42;;;22.73;;
19879;SDS011;10102;50.828;4.416;2022-12-05T00:43:36;45.17;;;19.95;;
19879;SDS011;10102;50.828;4.416;2022-12-05T00:46:02;48.03;;;21.30;;
19879;SDS011;10102;50.828;4.416;2022-12-05T00:48:29;43.03;;;20.20;;
19879;SDS011;10102;50.828;4.416;2022-12-05T00:51:02;38.83;;;18.95;;
19879;SDS011;10102;50.828;4.416;2022-12-05T00:53:29;51.88;;;20.20;;
19879;SDS011;10102;50.828;4.416;2022-12-05T00:55:55;44.28;;;20.65;;
19879;SDS011;10102;50.828;4.416;2022-12-05T00:58:25;38.20;;;18.88;;
19879;SDS011;10102;50.828;4.416;2022-12-05T01:00:51;39.00;;;18.85;;
19879;SDS011;10102;50.828;4.416;2022-12-05T01:03:17;38.70;;;18.77;;
19879;SDS011;10102;50.828;4.416;2022-12-05T01:05:42;43.97;;;20.50;;
19879;SDS011;10102;50.828;4.416;2022-12-05T01:08:08;50.45;;;19.60;;
19879;SDS011;10102;50.828;4.416;2022-12-05T01:10:34;43.13;;;19.45;;
19879;SDS011;10102;50.828;4.416;2022-12-05T01:12:59;43.80;;;18.77;;
19879;SDS011;10102;50.828;4.416;2022-12-05T01:15:25;42.92;;;21.23;;
19879;SDS011;10102;50.828;4.416;2022-12-05T01:17:51;42.50;;;21.77;;
19879;SDS011;10102;50.828;4.416;2022-12-05T01:20:17;45.28;;;19.33;;
19879;SDS011;10102;50.828;4.416;2022-12-05T01:22:42;46.03;;;19.40;;
19879;SDS011;10102;50.828;4.416;2022-12-05T01:25:08;41.78;;;19.27;;
19879;SDS011;10102;50.828;4.416;2022-12-05T01:27:34;48.42;;;19.67;;
19879;SDS011;10102;50.828;4.416;2022-12-05T01:29:59;43.60;;;18.92;;
19879;SDS011;10102;50.828;4.416;2022-12-05T01:32:25;40.70;;;18.67;;
19879;SDS011;10102;50.828;4.416;2022-12-05T01:34:51;40.60;;;17.65;;
19879;SDS011;10102;50.828;4.416;2022-12-05T01:37:17;42.22;;;18.92;;
19879;SDS011;10102;50.828;4.416;2022-12-05T01:39:42;40.50;;;18.42;;
19879;SDS011;10102;50.828;4.416;2022-12-05T01:42:10;48.55;;;19.13;;
19879;SDS011;10102;50.828;4.416;2022-12-05T01:47:02;43.03;;;18.00;;
19879;SDS011;10102;50.828;4.416;2022-12-05T01:49:35;42.22;;;18.40;;
19879;SDS011;10102;50.828;4.416;2022-12-05T01:52:04;39.28;;;18.15;;
19879;SDS011;10102;50.828;4.416;2022-12-05T01:54:43;39.78;;;18.05;;
19879;SDS011;10102;50.828;4.416;2022-12-05T01:57:10;43.90;;;19.77;;
19879;SDS011;10102;50.828;4.416;2022-12-05T01:59:38;47.90;;;20.73;;
19879;SDS011;10102;50.828;4.416;2022-12-05T02:02:09;51.35;;;20.63;;
19879;SDS011;10102;50.828;4.416;2022-12-05T02:04:37;45.55;;;19.70;;
19879;SDS011;10102;50.828;4.416;2022-12-05T02:07:13;49.13;;;20.02;;
19879;SDS011;10102;50.828;4.416;2022-12-05T02:09:39;41.15;;;19.55;;
19879;SDS011;10102;50.828;4.416;2022-12-05T02:12:04;43.58;;;20.55;;
19879;SDS011;10102;50.828;4.416;2022-12-05T02:14:41;55.75;;;22.45;;
19879;SDS011;10102;50.828;4.416;2022-12-05T02:17:28;48.63;;;21.60;;
19879;SDS011;10102;50.828;4.416;2022-12-05T02:31:56;49.03;;;22.58;;
19879;SDS011;10102;50.828;4.416;2022-12-05T02:37:02;55.45;;;22.80;;
19879;SDS011;10102;50.828;4.416;2022-12-05T02:42:39;60.00;;;22.50;;
19879;SDS011;10102;50.828;4.416;2022-12-05T02:45:19;58.47;;;22.27;;
19879;SDS011;10102;50.828;4.416;2022-12-05T02:47:51;62.00;;;25.38;;
19879;SDS011;10102;50.828;4.416;2022-12-05T02:50:19;56.67;;;23.23;;
19879;SDS011;10102;50.828;4.416;2022-12-05T02:52:47;51.90;;;22.80;;
19879;SDS011;10102;50.828;4.416;2022-12-05T02:55:15;61.80;;;23.63;;
19879;SDS011;10102;50.828;4.416;2022-12-05T02:57:44;56.13;;;23.38;;
19879;SDS011;10102;50.828;4.416;2022-12-05T03:00:14;57.25;;;23.40;;
19879;SDS011;10102;50.828;4.416;2022-12-05T03:02:40;62.05;;;24.10;;
19879;SDS011;10102;50.828;4.416;2022-12-05T03:08:00;54.50;;;22.60;;
19879;SDS011;10102;50.828;4.416;2022-12-05T03:10:28;55.13;;;23.30;;
19879;SDS011;10102;50.828;4.416;2022-12-05T03:13:03;58.55;;;23.45;;
19879;SDS011;10102;50.828;4.416;2022-12-05T03:15:34;62.42;;;23.60;;
19879;SDS011;10102;50.828;4.416;2022-12-05T03:18:10;61.50;;;24.05;;
19879;SDS011;10102;50.828;4.416;2022-12-05T03:23:18;54.05;;;23.60;;
19879;SDS011;10102;50.828;4.416;2022-12-05T03:28:48;59.75;;;22.88;;
19879;SDS011;10102;50.828;4.416;2022-12-05T03:31:20;66.63;;;22.83;;
19879;SDS011;10102;50.828;4.416;2022-12-05T03:34:06;52.17;;;22.58;;
19879;SDS011;10102;50.828;4.416;2022-12-05T03:36:39;55.13;;;22.25;;
19879;SDS011;10102;50.828;4.416;2022-12-05T03:39:09;51.05;;;22.83;;
19879;SDS011;10102;50.828;4.416;2022-12-05T03:41:55;49.08;;;21.17;;
19879;SDS011;10102;50.828;4.416;2022-12-05T03:47:00;55.00;;;21.70;;
19879;SDS011;10102;50.828;4.416;2022-12-05T03:49:35;44.80;;;21.15;;
19879;SDS011;10102;50.828;4.416;2022-12-05T03:54:50;53.35;;;22.90;;
19879;SDS011;10102;50.828;4.416;2022-12-05T03:57:30;50.25;;;20.77;;
19879;SDS011;10102;50.828;4.416;2022-12-05T04:00:02;55.38;;;21.27;;
19879;SDS011;10102;50.828;4.416;2022-12-05T04:03:01;55.97;;;21.70;;
19879;SDS011;10102;50.828;4.416;2022-12-05T04:08:19;40.67;;;19.98;;
19879;SDS011;10102;50.828;4.416;2022-12-05T04:11:06;45.45;;;19.52;;
19879;SDS011;10102;50.828;4.416;2022-12-05T04:13:44;43.17;;;20.15;;
19879;SDS011;10102;50.828;4.416;2022-12-05T04:16:20;50.75;;;20.63;;
19879;SDS011;10102;50.828;4.416;2022-12-05T04:21:49;45.58;;;20.45;;
19879;SDS011;10102;50.828;4.416;2022-12-05T04:27:11;44.17;;;19.73;;
19879;SDS011;10102;50.828;4.416;2022-12-05T04:30:32;45.30;;;19.63;;
19879;SDS011;10102;50.828;4.416;2022-12-05T04:32:43;51.30;;;22.08;;
19879;SDS011;10102;50.828;4.416;2022-12-05T04:35:14;53.08;;;21.33;;
19879;SDS011;10102;50.828;4.416;2022-12-05T04:37:46;44.58;;;20.25;;
19879;SDS011;10102;50.828;4.416;2022-12-05T04:40:33;44.53;;;18.92;;
19879;SDS011;10102;50.828;4.416;2022-12-05T04:43:05;39.65;;;19.63;;
19879;SDS011;10102;50.828;4.416;2022-12-05T04:45:32;38.92;;;18.17;;
19879;SDS011;10102;50.828;4.416;2022-12-05T04:48:02;39.42;;;19.58;;
19879;SDS011;10102;50.828;4.416;2022-12-05T04:50:31;46.03;;;19.10;;
19879;SDS011;10102;50.828;4.416;2022-12-05T04:52:58;40.28;;;18.08;;
19879;SDS011;10102;50.828;4.416;2022-12-05T04:55:26;41.38;;;18.17;;
19879;SDS011;10102;50.828;4.416;2022-12-05T04:58:03;45.33;;;20.45;;
19879;SDS011;10102;50.828;4.416;2022-12-05T05:00:30;39.63;;;18.15;;
19879;SDS011;10102;50.828;4.416;2022-12-05T05:05:46;41.22;;;19.58;;
19879;SDS011;10102;50.828;4.416;2022-12-05T05:08:16;42.67;;;19.50;;
19879;SDS011;10102;50.828;4.416;2022-12-05T05:10:47;43.70;;;19.10;;
19879;SDS011;10102;50.828;4.416;2022-12-05T05:13:27;42.80;;;19.90;;
19879;SDS011;10102;50.828;4.416;2022-12-05T05:15:53;40.65;;;19.85;;
19879;SDS011;10102;50.828;4.416;2022-12-05T05:18:19;39.17;;;19.40;;
19879;SDS011;10102;50.828;4.416;2022-12-05T05:20:45;49.20;;;20.83;;
19879;SDS011;10102;50.828;4.416;2022-12-05T05:23:10;48.10;;;19.88;;
19879;SDS011;10102;50.828;4.416;2022-12-05T05:25:36;42.75;;;20.10;;
19879;SDS011;10102;50.828;4.416;2022-12-05T05:28:02;41.67;;;19.65;;
19879;SDS011;10102;50.828;4.416;2022-12-05T05:30:27;44.83;;;20.10;;
19879;SDS011;10102;50.828;4.416;2022-12-05T05:32:53;43.90;;;20.35;;
19879;SDS011;10102;50.828;4.416;2022-12-05T05:35:19;43.85;;;19.38;;
19879;SDS011;10102;50.828;4.416;2022-12-05T05:37:45;47.47;;;21.85;;
19879;SDS011;10102;50.828;4.416;2022-12-05T05:40:12;49.28;;;21.30;;
19879;SDS011;10102;50.828;4.416;2022-12-05T05:42:41;45.47;;;21.10;;
19879;SDS011;10102;50.828;4.416;2022-12-05T05:45:08;50.80;;;21.48;;
19879;SDS011;10102;50.828;4.416;2022-12-05T05:47:35;45.15;;;20.80;;
19879;SDS011;10102;50.828;4.416;2022-12-05T05:50:00;52.65;;;21.15;;
19879;SDS011;10102;50.828;4.416;2022-12-05T05:52:26;52.83;;;21.02;;
19879;SDS011;10102;50.828;4.416;2022-12-05T05:54:51;53.58;;;22.20;;
19879;SDS011;10102;50.828;4.416;2022-12-05T05:57:17;52.40;;;20.67;;
19879;SDS011;10102;50.828;4.416;2022-12-05T05:59:43;51.55;;;20.77;;
19879;SDS011;10102;50.828;4.416;2022-12-05T06:02:08;45.75;;;21.85;;
19879;SDS011;10102;50.828;4.416;2022-12-05T06:04:34;54.55;;;21.98;;
19879;SDS011;10102;50.828;4.416;2022-12-05T06:06:59;55.28;;;23.63;;
19879;SDS011;10102;50.828;4.416;2022-12-05T06:09:25;49.58;;;21.30;;
19879;SDS011;10102;50.828;4.416;2022-12-05T06:11:51;53.08;;;21.73;;
19879;SDS011;10102;50.828;4.416;2022-12-05T06:14:16;52.65;;;23.38;;
19879;SDS011;10102;50.828;4.416;2022-12-05T06:16:42;51.92;;;22.17;;
19879;SDS011;10102;50.828;4.416;2022-12-05T06:19:07;54.88;;;21.25;;
19879;SDS011;10102;50.828;4.416;2022-12-05T06:21:33;45.97;;;20.30;;
19879;SDS011;10102;50.828;4.416;2022-12-05T06:23:59;44.90;;;20.77;;
19879;SDS011;10102;50.828;4.416;2022-12-05T06:26:24;47.78;;;20.52;;
19879;SDS011;10102;50.828;4.416;2022-12-05T06:28:50;44.05;;;19.73;;
19879;SDS011;10102;50.828;4.416;2022-12-05T06:31:18;49.05;;;21.23;;
19879;SDS011;10102;50.828;4.416;2022-12-05T06:33:47;50.70;;;21.08;;
19879;SDS011;10102;50.828;4.416;2022-12-05T06:36:14;48.58;;;20.92;;
19879;SDS011;10102;50.828;4.416;2022-12-05T06:38:42;53.33;;;21.50;;
19879;SDS011;10102;50.828;4.416;2022-12-05T06:43:40;45.70;;;20.50;;
19879;SDS011;10102;50.828;4.416;2022-12-05T06:46:07;46.65;;;20.30;;
19879;SDS011;10102;50.828;4.416;2022-12-05T06:48:34;46.47;;;20.13;;
19879;SDS011;10102;50.828;4.416;2022-12-05T06:50:59;45.70;;;19.60;;
19879;SDS011;10102;50.828;4.416;2022-12-05T06:53:25;48.28;;;20.75;;
19879;SDS011;10102;50.828;4.416;2022-12-05T06:55:55;41.83;;;19.48;;
19879;SDS011;10102;50.828;4.416;2022-12-05T06:58:25;38.10;;;18.52;;
19879;SDS011;10102;50.828;4.416;2022-12-05T07:00:51;47.70;;;20.73;;
19879;SDS011;10102;50.828;4.416;2022-12-05T07:03:36;47.03;;;20.88;;
19879;SDS011;10102;50.828;4.416;2022-12-05T07:06:03;38.85;;;19.20;;
19879;SDS011;10102;50.828;4.416;2022-12-05T07:08:31;43.78;;;19.60;;
19879;SDS011;10102;50.828;4.416;2022-12-05T07:10:57;39.85;;;18.65;;
19879;SDS011;10102;50.828;4.416;2022-12-05T07:13:23;41.35;;;19.35;;
19879;SDS011;10102;50.828;4.416;2022-12-05T07:15:49;50.97;;;22.10;;
19879;SDS011;10102;50.828;4.416;2022-12-05T07:18:15;45.88;;;20.25;;
19879;SDS011;10102;50.828;4.416;2022-12-05T07:20:42;49.25;;;19.38;;
19879;SDS011;10102;50.828;4.416;2022-12-05T07:23:09;41.53;;;19.40;;
19879;SDS011;10102;50.828;4.416;2022-12-05T07:25:41;49.30;;;20.80;;
19879;SDS011;10102;50.828;4.416;2022-12-05T07:28:07;44.55;;;19.95;;
19879;SDS011;10102;50.828;4.416;2022-12-05T07:30:33;50.05;;;20.33;;
19879;SDS011;10102;50.828;4.416;2022-12-05T07:32:59;47.35;;;19.25;;
19879;SDS011;10102;50.828;4.416;2022-12-05T07:35:24;47.95;;;19.52;;
19879;SDS011;10102;50.828;4.416;2022-12-05T07:37:50;42.83;;;19.60;;
19879;SDS011;10102;50.828;4.416;2022-12-05T07:40:16;43.13;;;19.20;;
19879;SDS011;10102;50.828;4.416;2022-12-05T07:42:42;42.00;;;19.20;;
19879;SDS011;10102;50.828;4.416;2022-12-05T07:45:07;39.35;;;19.48;;
19879;SDS011;10102;50.828;4.416;2022-12-05T07:47:33;36.33;;;19.08;;
19879;SDS011;10102;50.828;4.416;2022-12-05T07:49:59;44.25;;;18.38;;
19879;SDS011;10102;50.828;4.416;2022-12-05T07:52:25;39.95;;;19.05;;
19879;SDS011;10102;50.828;4.416;2022-12-05T07:54:52;44.83;;;20.10;;
19879;SDS011;10102;50.828;4.416;2022-12-05T07:57:18;43.83;;;20.83;;
19879;SDS011;10102;50.828;4.416;2022-12-05T07:59:44;45.42;;;20.63;;
19879;SDS011;10102;50.828;4.416;2022-12-05T08:02:09;40.63;;;20.05;;
19879;SDS011;10102;50.828;4.416;2022-12-05T08:04:35;41.83;;;19.67;;
19879;SDS011;10102;50.828;4.416;2022-12-05T08:07:01;42.58;;;18.58;;
19879;SDS011;10102;50.828;4.416;2022-12-05T08:09:26;48.58;;;20.58;;
19879;SDS011;10102;50.828;4.416;2022-12-05T08:11:52;44.25;;;19.48;;
19879;SDS011;10102;50.828;4.416;2022-12-05T08:14:17;49.60;;;21.38;;
19879;SDS011;10102;50.828;4.416;2022-12-05T08:16:43;44.88;;;20.90;;
19879;SDS011;10102;50.828;4.416;2022-12-05T08:19:09;50.22;;;21.25;;
19879;SDS011;10102;50.828;4.416;2022-12-05T08:21:37;45.72;;;21.25;;
19879;SDS011;10102;50.828;4.416;2022-12-05T08:24:06;45.47;;;21.00;;
19879;SDS011;10102;50.828;4.416;2022-12-05T08:26:32;50.67;;;20.42;;
19879;SDS011;10102;50.828;4.416;2022-12-05T08:28:59;46.22;;;20.92;;
19879;SDS011;10102;50.828;4.416;2022-12-05T08:31:28;52.10;;;21.15;;
19879;SDS011;10102;50.828;4.416;2022-12-05T08:33:56;48.28;;;20.90;;
19879;SDS011;10102;50.828;4.416;2022-12-05T08:36:22;43.67;;;21.02;;
19879;SDS011;10102;50.828;4.416;2022-12-05T08:38:48;40.75;;;21.50;;
19879;SDS011;10102;50.828;4.416;2022-12-05T08:41:15;48.47;;;20.70;;
19879;SDS011;10102;50.828;4.416;2022-12-05T08:43:41;40.80;;;18.70;;
19879;SDS011;10102;50.828;4.416;2022-12-05T08:46:08;40.00;;;18.58;;
19879;SDS011;10102;50.828;4.416;2022-12-05T08:48:35;40.28;;;20.90;;
19879;SDS011;10102;50.828;4.416;2022-12-05T08:51:07;41.50;;;19.75;;
19879;SDS011;10102;50.828;4.416;2022-12-05T08:53:34;42.95;;;19.42;;
19879;SDS011;10102;50.828;4.416;2022-12-05T08:56:01;40.50;;;19.33;;
19879;SDS011;10102;50.828;4.416;2022-12-05T08:58:28;42.03;;;19.95;;
19879;SDS011;10102;50.828;4.416;2022-12-05T09:01:01;46.47;;;22.58;;
19879;SDS011;10102;50.828;4.416;2022-12-05T09:03:35;39.88;;;18.58;;
19879;SDS011;10102;50.828;4.416;2022-12-05T09:06:09;38.92;;;19.15;;
19879;SDS011;10102;50.828;4.416;2022-12-05T09:08:38;39.92;;;19.90;;
19879;SDS011;10102;50.828;4.416;2022-12-05T09:11:05;30.02;;;17.30;;
19879;SDS011;10102;50.828;4.416;2022-12-05T09:13:32;33.40;;;17.92;;
19879;SDS011;10102;50.828;4.416;2022-12-05T09:15:58;36.20;;;17.67;;
19879;SDS011;10102;50.828;4.416;2022-12-05T09:18:28;34.90;;;17.48;;
19879;SDS011;10102;50.828;4.416;2022-12-05T09:20:53;35.60;;;17.88;;
19879;SDS011;10102;50.828;4.416;2022-12-05T09:23:19;34.78;;;17.83;;
19879;SDS011;10102;50.828;4.416;2022-12-05T09:25:51;36.97;;;18.10;;
19879;SDS011;10102;50.828;4.416;2022-12-05T09:28:18;33.30;;;16.48;;
19879;SDS011;10102;50.828;4.416;2022-12-05T09:30:43;38.78;;;18.45;;
19879;SDS011;10102;50.828;4.416;2022-12-05T09:33:09;27.85;;;16.02;;
19879;SDS011;10102;50.828;4.416;2022-12-05T09:35:38;31.52;;;17.20;;
19879;SDS011;10102;50.828;4.416;2022-12-05T09:38:05;28.60;;;16.77;;
19879;SDS011;10102;50.828;4.416;2022-12-05T09:40:33;29.60;;;16.75;;
19879;SDS011;10102;50.828;4.416;2022-12-05T09:43:06;28.08;;;16.33;;
19879;SDS011;10102;50.828;4.416;2022-12-05T09:45:41;25.63;;;14.82;;
19879;SDS011;10102;50.828;4.416;2022-12-05T09:48:17;28.63;;;15.15;;
19879;SDS011;10102;50.828;4.416;2022-12-05T09:50:51;30.70;;;15.73;;
19879;SDS011;10102;50.828;4.416;2022-12-05T09:53:39;24.95;;;14.73;;
19879;SDS011;10102;50.828;4.416;2022-12-05T09:58:45;25.42;;;15.27;;
19879;SDS011;10102;50.828;4.416;2022-12-05T10:04:10;25.10;;;13.27;;
19879;SDS011;10102;50.828;4.416;2022-12-05T10:14:44;23.65;;;14.05;;
19879;SDS011;10102;50.828;4.416;2022-12-05T10:17:34;21.30;;;13.85;;
19879;SDS011;10102;50.828;4.416;2022-12-05T10:20:25;21.70;;;13.48;;
19879;SDS011;10102;50.828;4.416;2022-12-05T10:22:58;22.08;;;13.52;;
19879;SDS011;10102;50.828;4.416;2022-12-05T10:25:36;19.58;;;12.85;;
19879;SDS011;10102;50.828;4.416;2022-12-05T10:28:05;23.77;;;14.20;;
19879;SDS011;10102;50.828;4.416;2022-12-05T10:30:39;22.75;;;14.40;;
19879;SDS011;10102;50.828;4.416;2022-12-05T10:33:13;21.30;;;13.48;;
19879;SDS011;10102;50.828;4.416;2022-12-05T10:35:44;22.33;;;14.60;;
19879;SDS011;10102;50.828;4.416;2022-12-05T10:38:11;23.38;;;13.68;;
19879;SDS011;10102;50.828;4.416;2022-12-05T10:40:49;25.27;;;15.10;;
19879;SDS011;10102;50.828;4.416;2022-12-05T10:43:28;23.13;;;13.85;;
19879;SDS011;10102;50.828;4.416;2022-12-05T10:45:55;20.23;;;13.00;;
19879;SDS011;10102;50.828;4.416;2022-12-05T10:48:22;19.65;;;12.43;;
19879;SDS011;10102;50.828;4.416;2022-12-05T10:50:49;20.48;;;12.60;;
19879;SDS011;10102;50.828;4.416;2022-12-05T10:53:18;21.50;;;12.40;;
19879;SDS011;10102;50.828;4.416;2022-12-05T10:59:00;17.98;;;11.82;;
19879;SDS011;10102;50.828;4.416;2022-12-05T11:01:26;15.95;;;10.75;;
19879;SDS011;10102;50.828;4.416;2022-12-05T11:03:56;16.58;;;11.15;;
19879;SDS011;10102;50.828;4.416;2022-12-05T11:08:54;16.63;;;10.98;;
19879;SDS011;10102;50.828;4.416;2022-12-05T11:11:25;20.98;;;11.43;;
19879;SDS011;10102;50.828;4.416;2022-12-05T11:13:54;17.17;;;10.43;;
19879;SDS011;10102;50.828;4.416;2022-12-05T11:16:31;16.55;;;11.15;;
19879;SDS011;10102;50.828;4.416;2022-12-05T11:22:03;16.90;;;10.77;;
19879;SDS011;10102;50.828;4.416;2022-12-05T11:29:41;17.10;;;10.77;;
19879;SDS011;10102;50.828;4.416;2022-12-05T11:32:29;15.52;;;10.10;;
19879;SDS011;10102;50.828;4.416;2022-12-05T11:37:39;16.88;;;10.38;;
19879;SDS011;10102;50.828;4.416;2022-12-05T11:40:24;19.48;;;10.95;;
19879;SDS011;10102;50.828;4.416;2022-12-05T11:48:48;13.52;;;9.10;;
19879;SDS011;10102;50.828;4.416;2022-12-05T11:54:34;13.10;;;9.48;;
19879;SDS011;10102;50.828;4.416;2022-12-05T12:02:53;13.23;;;9.48;;
19879;SDS011;10102;50.828;4.416;2022-12-05T12:08:40;14.52;;;9.30;;
19879;SDS011;10102;50.828;4.416;2022-12-05T12:17:27;13.80;;;8.82;;
19879;SDS011;10102;50.828;4.416;2022-12-05T12:33:52;15.65;;;9.57;;
19879;SDS011;10102;50.828;4.416;2022-12-05T12:44:52;13.80;;;9.52;;
19879;SDS011;10102;50.828;4.416;2022-12-05T12:50:36;16.27;;;10.15;;
19879;SDS011;10102;50.828;4.416;2022-12-05T13:01:27;16.75;;;10.48;;
19879;SDS011;10102;50.828;4.416;2022-12-05T13:03:59;17.35;;;11.40;;
19879;SDS011;10102;50.828;4.416;2022-12-05T13:11:54;15.50;;;10.30;;
19879;SDS011;10102;50.828;4.416;2022-12-05T13:14:26;17.83;;;10.98;;
19879;SDS011;10102;50.828;4.416;2022-12-05T13:16:53;17.80;;;12.02;;
19879;SDS011;10102;50.828;4.416;2022-12-05T13:21:52;18.38;;;11.60;;
19879;SDS011;10102;50.828;4.416;2022-12-05T13:24:21;19.13;;;11.27;;
19879;SDS011;10102;50.828;4.416;2022-12-05T13:26:50;19.20;;;12.35;;
19879;SDS011;10102;50.828;4.416;2022-12-05T13:29:21;25.67;;;12.20;;
19879;SDS011;10102;50.828;4.416;2022-12-05T13:32:02;18.08;;;11.25;;
19879;SDS011;10102;50.828;4.416;2022-12-05T13:37:19;19.00;;;11.77;;
19879;SDS011;10102;50.828;4.416;2022-12-05T13:43:08;16.00;;;11.25;;
19879;SDS011;10102;50.828;4.416;2022-12-05T13:45:36;15.02;;;10.88;;
19879;SDS011;10102;50.828;4.416;2022-12-05T13:53:28;18.60;;;11.60;;
19879;SDS011;10102;50.828;4.416;2022-12-05T13:56:04;14.68;;;10.77;;
19879;SDS011;10102;50.828;4.416;2022-12-05T14:34:03;16.50;;;11.32;;
19879;SDS011;10102;50.828;4.416;2022-12-05T14:36:38;20.08;;;11.93;;
19879;SDS011;10102;50.828;4.416;2022-12-05T14:42:03;20.77;;;11.30;;
19879;SDS011;10102;50.828;4.416;2022-12-05T14:44:46;20.15;;;11.88;;
19879;SDS011;10102;50.828;4.416;2022-12-05T14:47:17;22.77;;;13.50;;
19879;SDS011;10102;50.828;4.416;2022-12-05T14:52:26;19.23;;;11.98;;
19879;SDS011;10102;50.828;4.416;2022-12-05T14:55:02;19.48;;;12.27;;
19879;SDS011;10102;50.828;4.416;2022-12-05T14:57:31;21.73;;;12.80;;
19879;SDS011;10102;50.828;4.416;2022-12-05T15:00:05;20.77;;;12.57;;
19879;SDS011;10102;50.828;4.416;2022-12-05T15:02:43;21.27;;;12.45;;
19879;SDS011;10102;50.828;4.416;2022-12-05T15:07:52;18.27;;;11.48;;
19879;SDS011;10102;50.828;4.416;2022-12-05T15:10:23;18.08;;;10.82;;
19879;SDS011;10102;50.828;4.416;2022-12-05T15:12:59;22.02;;;12.38;;
19879;SDS011;10102;50.828;4.416;2022-12-05T15:23:38;25.65;;;14.18;;
19879;SDS011;10102;50.828;4.416;2022-12-05T15:26:25;27.65;;;14.23;;
19879;SDS011;10102;50.828;4.416;2022-12-05T15:31:37;23.10;;;12.88;;
19879;SDS011;10102;50.828;4.416;2022-12-05T15:36:51;29.80;;;14.65;;
19879;SDS011;10102;50.828;4.416;2022-12-05T15:42:22;24.25;;;13.60;;
19879;SDS011;10102;50.828;4.416;2022-12-05T15:45:29;29.48;;;15.98;;
19879;SDS011;10102;50.828;4.416;2022-12-05T15:47:55;32.28;;;17.38;;
19879;SDS011;10102;50.828;4.416;2022-12-05T15:50:35;31.70;;;17.13;;
19879;SDS011;10102;50.828;4.416;2022-12-05T16:00:44;40.25;;;19.10;;
19879;SDS011;10102;50.828;4.416;2022-12-05T16:03:16;32.35;;;17.55;;
19879;SDS011;10102;50.828;4.416;2022-12-05T16:06:33;32.08;;;17.58;;
19879;SDS011;10102;50.828;4.416;2022-12-05T16:08:44;33.70;;;17.27;;
19879;SDS011;10102;50.828;4.416;2022-12-05T16:11:11;32.22;;;17.10;;
19879;SDS011;10102;50.828;4.416;2022-12-05T16:13:41;38.10;;;18.33;;
19879;SDS011;10102;50.828;4.416;2022-12-05T16:16:12;34.47;;;18.35;;
19879;SDS011;10102;50.828;4.416;2022-12-05T16:19:12;33.55;;;18.25;;
19879;SDS011;10102;50.828;4.416;2022-12-05T16:21:43;36.17;;;18.27;;
19879;SDS011;10102;50.828;4.416;2022-12-05T16:26:42;35.75;;;19.00;;
19879;SDS011;10102;50.828;4.416;2022-12-05T16:29:25;37.83;;;18.98;;
19879;SDS011;10102;50.828;4.416;2022-12-05T16:31:53;38.50;;;19.42;;
19879;SDS011;10102;50.828;4.416;2022-12-05T16:34:20;33.90;;;18.00;;
19879;SDS011;10102;50.828;4.416;2022-12-05T16:36:48;40.80;;;18.70;;
19879;SDS011;10102;50.828;4.416;2022-12-05T16:39:14;34.50;;;18.15;;
19879;SDS011;10102;50.828;4.416;2022-12-05T16:41:41;38.42;;;21.48;;
19879;SDS011;10102;50.828;4.416;2022-12-05T16:46:52;40.55;;;19.00;;
19879;SDS011;10102;50.828;4.416;2022-12-05T16:49:21;37.42;;;19.98;;
19879;SDS011;10102;50.828;4.416;2022-12-05T16:51:59;37.60;;;20.50;;
19879;SDS011;10102;50.828;4.416;2022-12-05T16:54:26;36.53;;;19.67;;
19879;SDS011;10102;50.828;4.416;2022-12-05T16:56:51;40.35;;;20.50;;
19879;SDS011;10102;50.828;4.416;2022-12-05T16:59:36;39.10;;;20.35;;
19879;SDS011;10102;50.828;4.416;2022-12-05T17:02:05;42.22;;;20.77;;
19879;SDS011;10102;50.828;4.416;2022-12-05T17:04:35;40.10;;;20.90;;
19879;SDS011;10102;50.828;4.416;2022-12-05T17:07:02;39.55;;;20.88;;
19879;SDS011;10102;50.828;4.416;2022-12-05T17:09:28;41.80;;;20.67;;
19879;SDS011;10102;50.828;4.416;2022-12-05T17:11:55;41.53;;;21.90;;
19879;SDS011;10102;50.828;4.416;2022-12-05T17:14:31;35.38;;;19.25;;
19879;SDS011;10102;50.828;4.416;2022-12-05T17:16:57;41.80;;;20.73;;
19879;SDS011;10102;50.828;4.416;2022-12-05T17:19:22;43.97;;;22.02;;
19879;SDS011;10102;50.828;4.416;2022-12-05T17:21:48;40.42;;;19.80;;
19879;SDS011;10102;50.828;4.416;2022-12-05T17:24:14;39.80;;;19.52;;
19879;SDS011;10102;50.828;4.416;2022-12-05T17:26:41;35.05;;;20.55;;
19879;SDS011;10102;50.828;4.416;2022-12-05T17:29:07;34.28;;;19.65;;
19879;SDS011;10102;50.828;4.416;2022-12-05T17:31:34;35.90;;;19.08;;
19879;SDS011;10102;50.828;4.416;2022-12-05T17:34:00;33.17;;;18.23;;
19879;SDS011;10102;50.828;4.416;2022-12-05T17:36:26;33.83;;;17.77;;
19879;SDS011;10102;50.828;4.416;2022-12-05T17:38:51;35.05;;;18.00;;
19879;SDS011;10102;50.828;4.416;2022-12-05T17:41:18;38.53;;;19.92;;
19879;SDS011;10102;50.828;4.416;2022-12-05T17:43:47;32.58;;;18.42;;
19879;SDS011;10102;50.828;4.416;2022-12-05T17:46:17;34.53;;;18.80;;
19879;SDS011;10102;50.828;4.416;2022-12-05T17:48:46;36.58;;;20.15;;
19879;SDS011;10102;50.828;4.416;2022-12-05T17:51:13;36.63;;;19.42;;
19879;SDS011;10102;50.828;4.416;2022-12-05T17:53:39;38.60;;;20.05;;
19879;SDS011;10102;50.828;4.416;2022-12-05T17:56:05;33.13;;;18.48;;
19879;SDS011;10102;50.828;4.416;2022-12-05T17:58:31;35.63;;;19.98;;
19879;SDS011;10102;50.828;4.416;2022-12-05T18:00:57;38.10;;;19.63;;
19879;SDS011;10102;50.828;4.416;2022-12-05T18:03:23;49.10;;;22.90;;
19879;SDS011;10102;50.828;4.416;2022-12-05T18:05:48;42.08;;;23.67;;
19879;SDS011;10102;50.828;4.416;2022-12-05T18:08:15;41.50;;;23.45;;
19879;SDS011;10102;50.828;4.416;2022-12-05T18:10:42;47.88;;;26.35;;
19879;SDS011;10102;50.828;4.416;2022-12-05T18:13:10;51.35;;;27.13;;
19879;SDS011;10102;50.828;4.416;2022-12-05T18:15:36;48.58;;;27.10;;
19879;SDS011;10102;50.828;4.416;2022-12-05T18:18:03;44.00;;;24.17;;
19879;SDS011;10102;50.828;4.416;2022-12-05T18:20:31;43.78;;;24.85;;
19879;SDS011;10102;50.828;4.416;2022-12-05T18:22:57;46.55;;;23.70;;
19879;SDS011;10102;50.828;4.416;2022-12-05T18:25:23;47.88;;;24.80;;